Terminal Aerodrome Forecast
Issued by NWS Green Bay, WI

Home | Current Version | Previous Version | Text Only | Print | Product List | Glossary Off
Versions: 1 2 3 4 5 6 7 8 9 10 11 12 13 14 15 16 17 18 19 20 21 22 23 24 25 26 27 28 29 30 31 32

000
FTUS43 KGRB 250525
TAFGRB
TAF
KGRB 250525Z 2506/2606 36003KT P6SM SCT050
     FM250800 03005KT P6SM SCT006
      TEMPO 2509/2513 4SM BR BKN006
     FM251500 08009G15KT P6SM SCT025 BKN250
     FM260100 09007KT 5SM -SHRA BR SCT010 OVC020
      TEMPO 2602/2606 2SM +TSRA OVC020CB=

USA.gov is the U.S. government's official web portal to all federal, state and local government web resources and services.